This is the latest recevied weather packets stored in our database for station/object SP1BMW-13. If no packets are shown the sender has not sent any weather packets the latest 10 day(s).
| Time | Temp. | Humidity | Pressure | Rain* | Wind** | Luminosity | Snow |
|---|---|---|---|---|---|---|---|
| 1778227500 | 11.11° C | 56% | 1019.9 hPa | 0 mm | 1.34 m/s, 296° | 307 W/m² | - |
| 1778227440 | 11.11° C | 56% | 1019.7 hPa | 0 mm | 0.89 m/s, 2° | 329 W/m² | - |
| 1778227380 | 11.11° C | 55% | 1019.8 hPa | 0 mm | 1.79 m/s, 351° | 339 W/m² | - |
| 1778227320 | 11.11° C | 56% | 1020 hPa | 0 mm | 0.89 m/s, 329° | 607 W/m² | - |
| 1778227260 | 11.11° C | 55% | 1019.9 hPa | 0 mm | 1.79 m/s, 22° | 483 W/m² | - |
| 1778227200 | 11.11° C | 58% | 1019.9 hPa | 0 mm | 0.45 m/s, 8° | 275 W/m² | - |
| 1778227140 | 11.11° C | 57% | 1019.8 hPa | 0 mm | 0.89 m/s, 31° | 288 W/m² | - |
| 1778227080 | 11.11° C | 56% | 1019.8 hPa | 0 mm | 0.89 m/s, 51° | 277 W/m² | - |
| 1778227020 | 11.11° C | 56% | 1019.8 hPa | 0 mm | 2.24 m/s, 326° | 314 W/m² | - |
| 1778226960 | 11.11° C | 57% | 1019.9 hPa | 0 mm | 0.89 m/s, 353° | 287 W/m² | - |
| 1778226903 | 11.11° C | 55% | 1019.6 hPa | 0 mm | 0.45 m/s, 14° | 282 W/m² | - |
| 1778226840 | 11.11° C | 55% | 1019.8 hPa | 0 mm | 0.89 m/s, 68° | 294 W/m² | - |
| 1778226780 | 11.67° C | 55% | 1020 hPa | 0 mm | 0.89 m/s, 18° | 320 W/m² | - |
| 1778226720 | 11.67° C | 54% | 1020.2 hPa | 0 mm | 2.68 m/s, 11° | 338 W/m² | - |
| 1778226660 | 11.11° C | 58% | 1019.9 hPa | 0 mm | 1.34 m/s, 19° | 318 W/m² | - |
| 1778226600 | 11.11° C | 58% | 1019.9 hPa | 0 mm | 0.89 m/s, 47° | 368 W/m² | - |
| 1778226540 | 11.11° C | 59% | 1020 hPa | 0 mm | 1.34 m/s, 35° | 358 W/m² | - |
| 1778226480 | 11.11° C | 59% | 1019.9 hPa | 0 mm | 0.89 m/s, 25° | 439 W/m² | - |
| 1778226420 | 10.56° C | 58% | 1019.7 hPa | 0 mm | 0.89 m/s, 51° | 385 W/m² | - |
| 1778226360 | 10.56° C | 58% | 1019.9 hPa | 0 mm | 1.34 m/s, 44° | 425 W/m² | - |
| 1778226300 | 10.56° C | 58% | 1019.8 hPa | 0 mm | 2.24 m/s, 42° | 384 W/m² | - |
| 1778226240 | 10.56° C | 58% | 1019.9 hPa | 0 mm | 0.45 m/s, 322° | 425 W/m² | - |
| 1778226180 | 10.56° C | 59% | 1020 hPa | 0 mm | 1.34 m/s, 338° | 389 W/m² | - |
| 1778226120 | 10.56° C | 58% | 1020.1 hPa | 0 mm | 1.79 m/s, 289° | 378 W/m² | - |
| 1778226060 | 10.56° C | 59% | 1020 hPa | 0 mm | 1.34 m/s, 310° | 233 W/m² | - |
* Rain latest hour (hover to see other rain measurements)
** Current wind speed in m/s (hover to see current wind gust speed)